createdAt,value
2022-12-28T00:00:26.581Z,3.10
2022-12-28T00:01:26.460Z,2.60
2022-12-28T00:02:26.601Z,3.50
2022-12-28T00:03:26.465Z,2.90
2022-12-28T00:04:26.377Z,2.70
2022-12-28T00:05:26.401Z,2.80
2022-12-28T00:06:26.407Z,2.80
2022-12-28T00:07:26.607Z,2.50
2022-12-28T00:08:26.414Z,2.50
2022-12-28T00:09:26.402Z,2.20
2022-12-28T00:11:06.569Z,2.50
2022-12-28T00:11:28.162Z,2.20
2022-12-28T00:12:26.326Z,2.20
2022-12-28T00:13:26.458Z,2.20
2022-12-28T00:14:26.258Z,2.30
2022-12-28T00:15:26.946Z,2.30
2022-12-28T00:16:26.755Z,2.30
2022-12-28T00:17:26.370Z,2.30
2022-12-28T00:18:27.200Z,1.90
2022-12-28T00:19:26.780Z,1.90
2022-12-28T00:20:26.306Z,1.80
2022-12-28T00:21:26.326Z,1.90
2022-12-28T00:22:26.507Z,2.70
2022-12-28T00:23:26.301Z,2.10
2022-12-28T00:24:26.237Z,2.20
2022-12-28T00:25:26.212Z,2.10
2022-12-28T00:26:26.114Z,1.60
2022-12-28T00:27:26.134Z,2.00
2022-12-28T00:28:26.120Z,2.20
2022-12-28T00:29:26.156Z,2.00
2022-12-28T00:30:26.167Z,1.90
2022-12-28T00:31:26.058Z,1.70
2022-12-28T00:32:26.770Z,1.70
2022-12-28T00:33:26.081Z,1.60
2022-12-28T00:34:26.010Z,1.60
2022-12-28T00:35:25.976Z,1.80
2022-12-28T00:37:09.695Z,1.60
2022-12-28T00:37:27.020Z,1.60
2022-12-28T00:38:26.086Z,2.00
2022-12-28T00:39:26.060Z,1.80
2022-12-28T00:40:25.922Z,1.90
2022-12-28T00:41:25.926Z,1.80
2022-12-28T00:42:25.930Z,1.70
2022-12-28T00:43:26.046Z,1.60
2022-12-28T00:44:25.930Z,1.50
2022-12-28T00:45:26.200Z,1.60
2022-12-28T00:46:25.884Z,1.60
2022-12-28T00:47:26.167Z,1.80
2022-12-28T00:48:25.880Z,1.60
2022-12-28T00:49:25.806Z,1.80
2022-12-28T00:50:25.792Z,2.00
2022-12-28T00:51:25.778Z,1.30
2022-12-28T00:52:25.814Z,1.80
2022-12-28T00:53:25.890Z,1.80
2022-12-28T00:54:25.702Z,2.10
2022-12-28T00:55:25.805Z,1.60
2022-12-28T00:56:25.824Z,1.40
2022-12-28T00:57:25.724Z,1.90
2022-12-28T00:58:25.731Z,1.50
2022-12-28T00:59:25.648Z,1.50
2022-12-28T01:00:25.654Z,1.70
2022-12-28T01:01:25.791Z,1.30
2022-12-28T01:02:25.665Z,1.70
2022-12-28T01:03:26.596Z,1.60
2022-12-28T01:04:25.558Z,2.20
2022-12-28T01:05:25.588Z,1.40
2022-12-28T01:06:25.650Z,1.40
2022-12-28T01:07:25.601Z,1.30
2022-12-28T01:08:25.606Z,1.20
2022-12-28T01:09:25.539Z,1.80
2022-12-28T01:10:25.709Z,1.70
2022-12-28T01:11:25.531Z,1.60
2022-12-28T01:12:25.546Z,1.80
2022-12-28T01:13:25.855Z,1.30
2022-12-28T01:14:26.561Z,1.40
2022-12-28T01:15:27.951Z,1.60
2022-12-28T01:16:27.407Z,1.60
2022-12-28T01:17:25.652Z,1.70
2022-12-28T01:18:28.018Z,1.40
2022-12-28T01:19:25.885Z,1.20
2022-12-28T01:20:25.773Z,1.20
2022-12-28T01:21:26.327Z,1.50
2022-12-28T01:22:26.811Z,1.40
2022-12-28T01:23:26.728Z,1.50
2022-12-28T01:24:28.911Z,1.90
2022-12-28T01:25:29.192Z,1.80
2022-12-28T01:26:29.106Z,1.70
2022-12-28T01:27:25.526Z,1.70
2022-12-28T01:28:26.165Z,1.60
2022-12-28T01:29:25.454Z,2.10
2022-12-28T01:30:25.977Z,1.60
2022-12-28T01:31:25.467Z,1.50
2022-12-28T01:32:27.499Z,1.40
2022-12-28T01:33:30.098Z,1.60
2022-12-28T01:34:25.889Z,1.70
2022-12-28T01:35:25.289Z,1.80
2022-12-28T01:36:25.279Z,2.00
2022-12-28T01:37:26.005Z,1.20
2022-12-28T01:38:25.823Z,1.60
2022-12-28T01:39:34.123Z,1.40
2022-12-28T01:41:58.809Z,1.30
2022-12-28T01:43:02.078Z,1.30
2022-12-28T01:43:51.021Z,1.40
2022-12-28T01:44:50.853Z,1.40
2022-12-28T01:45:51.495Z,1.30
2022-12-28T01:46:55.036Z,1.40
2022-12-28T01:47:50.978Z,1.40
2022-12-28T01:48:50.673Z,1.50
2022-12-28T01:49:51.211Z,1.60
2022-12-28T01:50:51.084Z,1.30
2022-12-28T01:51:52.362Z,1.60
2022-12-28T01:52:53.660Z,1.70
2022-12-28T01:53:51.009Z,1.30
2022-12-28T01:54:53.279Z,1.20
2022-12-28T01:55:53.569Z,1.40
2022-12-28T01:56:51.852Z,1.20
2022-12-28T01:57:50.525Z,1.70
2022-12-28T01:58:51.674Z,1.40
2022-12-28T01:59:50.948Z,1.40
2022-12-28T02:00:50.983Z,1.60
2022-12-28T02:01:51.955Z,1.30
2022-12-28T02:03:20.794Z,1.50
2022-12-28T02:05:50.667Z,1.40
2022-12-28T02:06:41.388Z,1.30
2022-12-28T02:07:41.199Z,1.60
2022-12-28T02:08:41.886Z,1.10
2022-12-28T02:09:40.569Z,1.20
2022-12-28T02:10:45.828Z,1.40
2022-12-28T02:11:42.519Z,1.30
2022-12-28T02:12:41.011Z,1.30
2022-12-28T02:13:43.045Z,1.40
2022-12-28T02:14:40.414Z,1.20
2022-12-28T02:15:40.857Z,1.50
2022-12-28T02:16:40.650Z,1.30
2022-12-28T02:17:40.541Z,1.10
2022-12-28T02:18:40.837Z,1.70
2022-12-28T02:19:40.127Z,1.40
2022-12-28T02:20:42.403Z,1.10
2022-12-28T02:21:40.264Z,1.40
2022-12-28T02:22:39.857Z,1.60
2022-12-28T02:23:40.196Z,1.40
2022-12-28T02:24:40.876Z,1.30
2022-12-28T02:25:40.282Z,1.40
2022-12-28T02:26:41.305Z,1.20
2022-12-28T02:27:42.647Z,1.50
2022-12-28T02:28:40.715Z,1.20
2022-12-28T02:29:40.192Z,1.30
2022-12-28T02:30:40.463Z,1.10
2022-12-28T02:31:40.324Z,1.40
2022-12-28T02:32:40.472Z,1.20
2022-12-28T02:33:40.434Z,1.30
2022-12-28T02:34:40.775Z,1.30
2022-12-28T02:35:40.770Z,1.10
2022-12-28T02:36:39.837Z,1.20
2022-12-28T02:37:42.235Z,1.40
2022-12-28T02:38:39.844Z,1.20
2022-12-28T02:39:42.116Z,1.30
2022-12-28T02:40:41.289Z,1.00
2022-12-28T02:41:40.853Z,1.20
2022-12-28T02:42:42.764Z,1.20
2022-12-28T02:43:40.204Z,1.00
2022-12-28T02:44:40.093Z,1.30
2022-12-28T02:45:40.263Z,1.40
2022-12-28T02:46:41.403Z,1.00
2022-12-28T02:47:41.663Z,1.10
2022-12-28T02:48:39.546Z,1.10
2022-12-28T02:49:45.567Z,1.50
2022-12-28T02:50:46.693Z,1.30
2022-12-28T02:51:42.615Z,1.10
2022-12-28T02:52:41.287Z,1.10
2022-12-28T02:53:42.738Z,1.30
2022-12-28T02:54:40.269Z,1.60
2022-12-28T02:55:39.675Z,1.40
2022-12-28T02:56:50.451Z,1.30
2022-12-28T02:57:39.946Z,1.50
2022-12-28T02:58:39.794Z,1.60
2022-12-28T02:59:41.760Z,1.50
2022-12-28T03:00:43.690Z,1.50
2022-12-28T03:01:40.503Z,1.10
2022-12-28T03:02:45.228Z,1.50
2022-12-28T03:03:39.431Z,1.50
2022-12-28T03:04:40.671Z,1.30
2022-12-28T03:05:39.524Z,1.20
2022-12-28T03:06:40.380Z,1.80
2022-12-28T03:07:42.523Z,1.60
2022-12-28T03:08:39.959Z,1.40
2022-12-28T03:09:39.365Z,1.70
2022-12-28T03:10:42.431Z,1.50
2022-12-28T03:11:45.936Z,1.40
2022-12-28T03:12:41.453Z,1.50
2022-12-28T03:13:45.155Z,1.80
2022-12-28T03:14:41.564Z,1.30
2022-12-28T03:15:39.121Z,1.30
2022-12-28T03:16:39.313Z,1.70
2022-12-28T03:17:39.116Z,1.80
2022-12-28T03:18:39.429Z,1.90
2022-12-28T03:19:41.086Z,1.70
2022-12-28T03:20:41.620Z,1.60
2022-12-28T03:21:39.243Z,1.40
2022-12-28T03:22:39.071Z,1.40
2022-12-28T03:23:43.805Z,2.20
2022-12-28T03:24:40.702Z,1.60
2022-12-28T03:25:39.055Z,1.30
2022-12-28T03:26:39.484Z,1.50
2022-12-28T03:27:39.374Z,1.40
2022-12-28T03:28:39.820Z,1.50
2022-12-28T03:29:46.568Z,1.80
2022-12-28T03:30:40.702Z,1.40
2022-12-28T03:31:40.036Z,1.90
2022-12-28T03:32:39.353Z,1.80
2022-12-28T03:33:38.804Z,1.60
2022-12-28T03:34:40.047Z,1.80
2022-12-28T03:35:39.043Z,1.80
2022-12-28T03:36:38.856Z,1.60
2022-12-28T03:37:38.945Z,1.80
2022-12-28T03:38:40.186Z,1.60
2022-12-28T03:39:39.391Z,1.90
2022-12-28T03:40:40.204Z,2.10
2022-12-28T03:41:38.966Z,1.50
2022-12-28T03:42:40.326Z,1.50
2022-12-28T03:43:40.310Z,2.40
2022-12-28T03:44:39.811Z,2.10
2022-12-28T03:45:45.323Z,2.10
2022-12-28T03:46:40.608Z,2.00
2022-12-28T03:47:39.124Z,2.10
2022-12-28T03:48:39.439Z,2.30
2022-12-28T03:49:39.045Z,1.90
2022-12-28T03:50:39.055Z,2.00
2022-12-28T03:51:38.733Z,2.30
2022-12-28T03:52:38.757Z,2.20
2022-12-28T03:53:39.374Z,2.20
2022-12-28T03:54:39.568Z,2.10
2022-12-28T03:55:40.043Z,2.20
2022-12-28T03:56:39.916Z,2.40
2022-12-28T03:57:38.504Z,2.50
2022-12-28T03:58:38.478Z,3.10
2022-12-28T03:59:41.589Z,2.80
2022-12-28T04:00:38.414Z,2.50
2022-12-28T04:01:38.500Z,3.10
2022-12-28T04:02:38.777Z,3.20
2022-12-28T04:03:38.437Z,3.10
2022-12-28T04:04:38.417Z,2.90
2022-12-28T04:05:38.367Z,3.20
2022-12-28T04:06:38.585Z,4.00
2022-12-28T04:07:38.765Z,3.10
2022-12-28T04:08:38.474Z,3.10
2022-12-28T04:09:38.446Z,3.90
2022-12-28T04:10:39.601Z,3.00
2022-12-28T04:11:41.955Z,3.70
2022-12-28T04:12:39.803Z,4.00
2022-12-28T04:13:39.407Z,3.80
2022-12-28T04:14:39.229Z,3.60
2022-12-28T04:15:39.570Z,3.20
2022-12-28T04:16:39.143Z,3.60
2022-12-28T04:17:42.431Z,4.00
2022-12-28T04:18:40.193Z,2.90
2022-12-28T04:19:44.657Z,3.30
2022-12-28T04:20:42.659Z,3.50
2022-12-28T04:21:39.877Z,3.40
2022-12-28T04:22:46.857Z,4.00
2022-12-28T04:23:40.710Z,3.80
2022-12-28T04:24:43.189Z,3.60
2022-12-28T04:25:39.104Z,3.70
2022-12-28T04:26:38.814Z,4.00
2022-12-28T04:27:40.335Z,3.80
2022-12-28T04:28:40.744Z,4.00
2022-12-28T04:29:40.435Z,4.20
2022-12-28T04:30:40.264Z,5.00
2022-12-28T04:31:39.993Z,3.80
2022-12-28T04:32:46.617Z,4.40
2022-12-28T04:33:39.466Z,4.10
2022-12-28T04:34:48.185Z,5.10
2022-12-28T04:35:40.089Z,4.60
2022-12-28T04:36:38.147Z,4.20
2022-12-28T04:37:38.668Z,4.20
2022-12-28T04:38:38.978Z,4.80
2022-12-28T04:39:55.824Z,4.90
2022-12-28T04:40:39.191Z,4.70
2022-12-28T04:41:39.122Z,3.30
2022-12-28T04:42:39.333Z,4.10
2022-12-28T04:43:38.308Z,3.60
2022-12-28T04:44:38.211Z,3.70
2022-12-28T04:45:37.998Z,4.20
2022-12-28T04:46:38.862Z,4.90
2022-12-28T04:47:38.014Z,4.40
2022-12-28T04:48:37.728Z,4.40
2022-12-28T04:49:38.536Z,4.40
2022-12-28T04:50:38.134Z,4.60
2022-12-28T04:51:38.152Z,4.30
2022-12-28T04:52:39.790Z,3.70
2022-12-28T04:53:38.043Z,4.10
2022-12-28T04:54:37.883Z,5.00
2022-12-28T04:55:39.903Z,3.50
2022-12-28T04:56:38.064Z,4.10
2022-12-28T04:57:38.185Z,4.20
2022-12-28T04:58:38.085Z,4.70
2022-12-28T04:59:38.207Z,4.60
2022-12-28T05:00:40.660Z,5.10
2022-12-28T05:01:39.546Z,4.50
2022-12-28T05:02:41.297Z,5.30
2022-12-28T05:03:40.470Z,4.20
2022-12-28T05:04:37.825Z,4.40
2022-12-28T05:05:39.388Z,4.80
2022-12-28T05:06:38.889Z,5.60
2022-12-28T05:07:39.337Z,4.40
2022-12-28T05:08:39.195Z,5.40
2022-12-28T05:09:38.369Z,5.00
2022-12-28T05:10:40.333Z,4.20
2022-12-28T05:11:38.682Z,4.40
2022-12-28T05:12:37.919Z,3.60
2022-12-28T05:13:37.911Z,4.70
2022-12-28T05:14:37.881Z,5.20
2022-12-28T05:15:37.727Z,4.20
2022-12-28T05:16:37.591Z,4.30
2022-12-28T05:17:37.623Z,4.70
2022-12-28T05:18:38.554Z,4.40
2022-12-28T05:19:37.553Z,4.20
2022-12-28T05:20:38.371Z,4.90
2022-12-28T05:21:37.837Z,5.40
2022-12-28T05:22:40.850Z,5.20
2022-12-28T05:23:37.851Z,5.00
2022-12-28T05:24:37.976Z,5.30
2022-12-28T05:25:39.108Z,5.00
2022-12-28T05:26:39.016Z,5.00
2022-12-28T05:27:41.184Z,5.40
2022-12-28T05:28:38.294Z,5.10
2022-12-28T05:29:38.761Z,4.50
2022-12-28T05:30:39.267Z,4.90
2022-12-28T05:31:38.697Z,5.10
2022-12-28T05:32:40.170Z,5.90
2022-12-28T05:33:41.035Z,6.10
2022-12-28T05:34:42.752Z,6.40
2022-12-28T05:35:39.104Z,5.50
2022-12-28T05:36:37.798Z,5.20
2022-12-28T05:37:39.096Z,4.90
2022-12-28T05:38:38.526Z,5.20
2022-12-28T05:39:37.251Z,7.00
2022-12-28T05:40:39.011Z,7.00
2022-12-28T05:41:39.232Z,5.90
2022-12-28T05:42:37.707Z,5.90
2022-12-28T05:43:37.218Z,5.40
2022-12-28T05:44:37.102Z,6.50
2022-12-28T05:45:38.098Z,7.40
2022-12-28T05:46:38.037Z,7.10
2022-12-28T05:47:37.763Z,6.00
2022-12-28T05:48:37.627Z,6.50
2022-12-28T05:49:37.215Z,6.50
2022-12-28T05:50:41.004Z,7.00
2022-12-28T05:51:39.641Z,6.10
2022-12-28T05:52:38.871Z,6.20
2022-12-28T05:53:38.711Z,6.80
2022-12-28T05:54:38.564Z,6.90
2022-12-28T05:55:37.092Z,6.00
2022-12-28T05:56:37.985Z,6.30
2022-12-28T05:57:40.359Z,6.20
2022-12-28T05:58:37.812Z,5.20
2022-12-28T05:59:36.999Z,8.90
2022-12-28T06:00:38.135Z,7.30
2022-12-28T06:01:39.005Z,6.50
2022-12-28T06:02:39.040Z,7.70
2022-12-28T06:03:42.407Z,6.60
2022-12-28T06:04:38.785Z,6.30
2022-12-28T06:05:37.379Z,7.40
2022-12-28T06:06:37.279Z,7.70
2022-12-28T06:07:37.231Z,6.30
2022-12-28T06:08:43.740Z,7.60
2022-12-28T06:09:45.674Z,7.00
2022-12-28T06:10:39.546Z,7.90
2022-12-28T06:11:38.834Z,7.00
2022-12-28T06:12:38.201Z,7.00
2022-12-28T06:13:38.537Z,7.20
2022-12-28T06:14:39.776Z,7.90
2022-12-28T06:15:41.210Z,8.20
2022-12-28T06:16:41.556Z,9.50
2022-12-28T06:17:43.866Z,8.60
2022-12-28T06:18:43.300Z,9.20
2022-12-28T06:19:37.951Z,9.50
2022-12-28T06:20:42.085Z,6.20
2022-12-28T06:21:45.572Z,7.80
2022-12-28T06:22:49.063Z,9.20
2022-12-28T06:25:41.684Z,8.40
2022-12-28T06:26:31.180Z,8.90
2022-12-28T06:27:22.039Z,7.60
2022-12-28T06:28:20.825Z,6.90
2022-12-28T06:29:26.776Z,8.10
2022-12-28T06:30:21.952Z,8.80
2022-12-28T06:31:23.936Z,7.50
2022-12-28T06:32:20.419Z,8.20
2022-12-28T06:33:23.923Z,8.60
2022-12-28T06:34:19.562Z,8.10
2022-12-28T06:35:21.376Z,6.90
2022-12-28T06:36:21.060Z,7.60
2022-12-28T06:37:21.481Z,7.70
2022-12-28T06:38:19.970Z,7.70
2022-12-28T06:39:19.861Z,9.90
2022-12-28T06:40:39.573Z,6.90
2022-12-28T06:41:20.398Z,9.10
2022-12-28T06:42:20.089Z,8.80
2022-12-28T06:43:22.145Z,8.70
2022-12-28T06:44:22.137Z,8.60
2022-12-28T06:45:20.345Z,8.40
2022-12-28T06:46:20.583Z,7.20
2022-12-28T06:47:20.030Z,10.30
2022-12-28T06:48:19.012Z,9.10
2022-12-28T06:49:19.108Z,7.70
2022-12-28T06:50:19.148Z,10.00
2022-12-28T06:51:18.929Z,8.80
2022-12-28T06:52:19.043Z,7.40
2022-12-28T06:53:19.057Z,7.40
2022-12-28T06:54:18.955Z,8.80
2022-12-28T06:55:19.049Z,8.60
2022-12-28T06:56:18.869Z,7.80
2022-12-28T06:57:19.060Z,7.50
2022-12-28T06:58:19.085Z,5.90
2022-12-28T06:59:19.100Z,8.00
2022-12-28T07:00:18.891Z,7.10
2022-12-28T07:01:19.735Z,6.50
2022-12-28T07:02:19.324Z,8.70
2022-12-28T07:03:18.862Z,6.20
2022-12-28T07:04:18.823Z,6.70
2022-12-28T07:05:19.557Z,8.80
2022-12-28T07:06:19.761Z,8.20
2022-12-28T07:07:18.929Z,6.70
2022-12-28T07:08:19.542Z,7.10
2022-12-28T07:09:19.154Z,6.40
2022-12-28T07:10:18.767Z,10.40
2022-12-28T07:11:19.294Z,6.90
2022-12-28T07:12:21.216Z,4.30
2022-12-28T07:20:41.660Z,7.60
2022-12-28T07:21:42.492Z,7.30
2022-12-28T07:29:45.424Z,4.60
2022-12-28T07:30:43.299Z,4.90
2022-12-28T07:31:45.795Z,7.40
2022-12-28T07:32:42.864Z,5.60
2022-12-28T07:33:42.896Z,6.50
2022-12-28T07:34:43.120Z,5.00
2022-12-28T07:35:43.512Z,3.90
2022-12-28T07:36:42.714Z,5.10
2022-12-28T07:37:42.833Z,4.70
2022-12-28T07:38:42.912Z,6.10
2022-12-28T07:39:42.822Z,3.30
2022-12-28T07:40:43.433Z,5.30
2022-12-28T07:41:42.937Z,4.30
2022-12-28T07:42:42.784Z,4.00
2022-12-28T07:43:42.741Z,4.20
2022-12-28T07:44:48.801Z,4.70
2022-12-28T07:45:43.744Z,3.90
2022-12-28T07:46:42.576Z,3.70
2022-12-28T07:47:42.789Z,5.20
2022-12-28T07:48:42.554Z,5.30
2022-12-28T07:49:42.997Z,4.10
2022-12-28T07:50:42.680Z,3.80
2022-12-28T07:51:42.714Z,4.40
2022-12-28T07:52:42.624Z,4.50
2022-12-28T07:53:43.416Z,5.00
2022-12-28T07:54:42.520Z,4.20
2022-12-28T07:55:42.423Z,4.20
2022-12-28T07:57:29.739Z,4.70
2022-12-28T07:58:29.472Z,4.40
2022-12-28T07:59:31.324Z,4.40
2022-12-28T08:00:29.377Z,4.80
2022-12-28T08:01:29.219Z,4.90
2022-12-28T08:02:29.367Z,5.40
2022-12-28T08:03:29.015Z,3.80
2022-12-28T08:04:28.972Z,3.50
2022-12-28T08:05:28.986Z,4.30
2022-12-28T08:06:28.977Z,3.20
2022-12-28T08:07:30.349Z,4.20
2022-12-28T08:08:29.204Z,3.60
2022-12-28T08:09:29.133Z,3.90
2022-12-28T08:10:29.248Z,4.30
2022-12-28T08:11:29.251Z,4.00
2022-12-28T08:12:28.813Z,3.80
2022-12-28T08:13:29.562Z,4.20
2022-12-28T08:14:28.831Z,5.30
2022-12-28T08:15:28.997Z,4.00
2022-12-28T08:16:29.084Z,4.90
2022-12-28T08:17:28.847Z,4.60
2022-12-28T08:18:29.395Z,5.10
2022-12-28T08:19:29.575Z,3.50
2022-12-28T08:20:28.777Z,3.10
2022-12-28T08:21:28.876Z,5.40
2022-12-28T08:22:28.997Z,4.30
2022-12-28T08:23:29.003Z,5.30
2022-12-28T08:24:29.428Z,3.70
2022-12-28T08:25:28.818Z,5.40
2022-12-28T08:26:29.042Z,4.60
2022-12-28T08:27:32.324Z,4.60
2022-12-28T08:28:30.276Z,4.80
2022-12-28T08:29:28.640Z,6.10
2022-12-28T08:30:29.174Z,6.80
2022-12-28T08:31:29.584Z,5.60
2022-12-28T08:32:28.961Z,5.90
2022-12-28T08:33:28.668Z,4.90
2022-12-28T08:34:28.651Z,4.80
2022-12-28T08:35:28.671Z,5.60
2022-12-28T08:36:29.102Z,8.70
2022-12-28T08:37:28.685Z,4.80
2022-12-28T08:38:29.509Z,5.40
2022-12-28T08:39:28.720Z,5.30
2022-12-28T08:40:28.399Z,5.10
2022-12-28T08:41:28.646Z,5.50
2022-12-28T08:42:28.830Z,5.50
2022-12-28T08:43:29.554Z,5.00
2022-12-28T08:44:29.045Z,5.70
2022-12-28T08:45:28.625Z,4.90
2022-12-28T08:46:28.468Z,6.80
2022-12-28T08:47:28.438Z,5.70
2022-12-28T08:48:29.091Z,5.80
2022-12-28T08:49:28.370Z,6.30
2022-12-28T08:50:31.723Z,6.00
2022-12-28T08:51:29.214Z,7.70
2022-12-28T08:52:28.514Z,6.80
2022-12-28T08:53:28.320Z,6.20
2022-12-28T08:54:28.321Z,6.70
2022-12-28T08:55:28.721Z,7.70
2022-12-28T08:56:28.343Z,6.30
2022-12-28T08:57:42.552Z,5.80
2022-12-28T08:58:30.772Z,7.90
2022-12-28T08:59:39.077Z,7.90
2022-12-28T09:00:34.274Z,9.10
2022-12-28T09:01:29.609Z,8.60
2022-12-28T09:02:29.207Z,7.90
2022-12-28T09:03:32.102Z,6.30
2022-12-28T09:04:29.731Z,7.40
2022-12-28T09:05:33.286Z,8.30
2022-12-28T09:06:30.793Z,8.70
2022-12-28T09:07:29.618Z,7.70
2022-12-28T09:08:29.515Z,9.80
2022-12-28T09:09:29.129Z,8.10
2022-12-28T09:10:29.043Z,9.50
2022-12-28T09:11:28.348Z,7.20
2022-12-28T09:12:28.646Z,8.10
2022-12-28T09:13:29.054Z,8.70
2022-12-28T09:14:28.945Z,8.30
2022-12-28T09:15:28.572Z,10.70
2022-12-28T09:16:30.926Z,9.80
2022-12-28T09:17:28.187Z,10.80
2022-12-28T09:18:28.254Z,10.20
2022-12-28T09:19:28.988Z,13.40
2022-12-28T09:20:28.003Z,10.00
2022-12-28T09:21:28.583Z,9.30
2022-12-28T09:22:28.814Z,11.90
2022-12-28T09:23:28.593Z,11.10
2022-12-28T09:24:28.727Z,12.10
2022-12-28T09:25:29.453Z,10.50
2022-12-28T09:26:28.114Z,9.30
2022-12-28T09:27:27.929Z,12.40
2022-12-28T09:28:28.559Z,10.70
2022-12-28T09:29:28.351Z,9.90
2022-12-28T09:30:28.069Z,9.50
2022-12-28T09:31:28.212Z,12.50
2022-12-28T09:32:28.374Z,12.40
2022-12-28T09:33:28.484Z,10.50
2022-12-28T09:34:36.326Z,9.60
2022-12-28T09:35:28.819Z,11.40
2022-12-28T09:36:28.910Z,8.00
2022-12-28T09:37:28.309Z,9.40
2022-12-28T09:38:27.680Z,8.20
2022-12-28T09:39:28.272Z,9.70
2022-12-28T09:40:27.810Z,9.10
2022-12-28T09:41:28.317Z,8.60
2022-12-28T09:42:27.848Z,10.00
2022-12-28T09:43:27.922Z,8.90
2022-12-28T09:44:27.722Z,8.70
2022-12-28T09:45:27.632Z,9.70
2022-12-28T09:46:27.739Z,9.60
2022-12-28T09:47:27.531Z,10.70
2022-12-28T09:48:27.656Z,9.10
2022-12-28T09:49:27.448Z,8.60
2022-12-28T09:50:27.473Z,9.00
2022-12-28T09:51:27.484Z,11.40
2022-12-28T09:52:27.682Z,9.00
2022-12-28T09:53:27.407Z,8.50
2022-12-28T09:54:27.403Z,9.50
2022-12-28T09:55:27.517Z,11.00
2022-12-28T09:56:27.624Z,7.70
2022-12-28T09:57:27.508Z,7.40
2022-12-28T09:58:28.544Z,9.50
2022-12-28T09:59:32.140Z,10.00
2022-12-28T10:00:31.155Z,9.80
2022-12-28T10:01:27.609Z,8.60
2022-12-28T10:02:27.863Z,9.00
2022-12-28T10:03:29.572Z,8.20
2022-12-28T10:04:27.592Z,6.70
2022-12-28T10:05:28.688Z,8.90
2022-12-28T10:06:31.700Z,13.10
2022-12-28T10:07:27.617Z,8.00
2022-12-28T10:08:27.557Z,8.20
2022-12-28T10:09:31.815Z,9.50
2022-12-28T10:10:28.872Z,8.10
2022-12-28T10:11:28.468Z,7.70
2022-12-28T10:12:31.804Z,9.60
2022-12-28T10:13:56.671Z,9.50
2022-12-28T10:14:28.286Z,7.90
2022-12-28T10:15:27.668Z,7.70
2022-12-28T10:16:27.301Z,7.50
2022-12-28T10:17:27.159Z,8.80
2022-12-28T10:18:27.177Z,10.20
2022-12-28T10:19:27.273Z,7.10
2022-12-28T10:20:27.484Z,7.10
2022-12-28T10:21:32.732Z,8.40
2022-12-28T10:22:33.936Z,8.90
2022-12-28T10:23:28.413Z,7.60
2022-12-28T10:24:32.076Z,8.70
2022-12-28T10:25:27.523Z,10.10
2022-12-28T10:26:27.038Z,9.60
2022-12-28T10:27:27.405Z,8.70
2022-12-28T10:28:29.670Z,7.90
2022-12-28T10:29:27.145Z,7.40
2022-12-28T10:30:27.632Z,8.60
2022-12-28T10:31:27.194Z,8.60
2022-12-28T10:32:28.091Z,7.90
2022-12-28T10:33:29.502Z,7.20
2022-12-28T10:34:33.582Z,9.30
2022-12-28T10:35:28.198Z,7.30
2022-12-28T10:36:31.602Z,9.70
2022-12-28T10:37:27.393Z,7.50
2022-12-28T10:38:26.917Z,7.60
2022-12-28T10:39:27.646Z,7.80
2022-12-28T10:40:26.813Z,8.00
2022-12-28T10:41:26.926Z,8.30
2022-12-28T10:42:26.854Z,7.00
2022-12-28T10:43:26.822Z,8.60
2022-12-28T10:45:27.657Z,10.20
2022-12-28T10:46:30.739Z,8.40
2022-12-28T10:47:28.107Z,7.00
2022-12-28T10:48:27.682Z,9.40
2022-12-28T10:49:27.299Z,9.60
2022-12-28T10:50:37.156Z,7.00
2022-12-28T10:51:27.803Z,9.90
2022-12-28T10:52:27.181Z,8.60
2022-12-28T10:53:26.845Z,7.30
2022-12-28T10:54:28.167Z,8.40
2022-12-28T10:55:27.143Z,7.60
2022-12-28T10:56:27.047Z,8.30
2022-12-28T10:57:30.317Z,7.00
2022-12-28T10:58:30.015Z,7.20
2022-12-28T10:59:34.811Z,8.10
2022-12-28T11:00:29.822Z,6.30
2022-12-28T11:01:33.637Z,7.10
2022-12-28T11:02:29.023Z,8.00
2022-12-28T11:03:21.095Z,9.70
2022-12-28T11:03:43.651Z,7.40
2022-12-28T11:05:02.677Z,7.80
2022-12-28T11:05:57.272Z,7.70
2022-12-28T11:06:28.107Z,8.60
2022-12-28T11:07:29.586Z,6.20
2022-12-28T11:08:27.647Z,6.80
2022-12-28T11:09:27.624Z,7.30
2022-12-28T11:10:32.150Z,7.00
2022-12-28T11:11:27.761Z,6.20
2022-12-28T11:12:27.844Z,7.30
2022-12-28T11:13:26.837Z,7.00
2022-12-28T11:14:27.060Z,7.00
2022-12-28T11:15:26.758Z,6.30
2022-12-28T11:16:28.725Z,5.60
2022-12-28T11:17:33.752Z,6.10
2022-12-28T11:18:36.190Z,7.80
2022-12-28T11:19:27.412Z,8.50
2022-12-28T11:20:26.355Z,7.70
2022-12-28T11:21:26.183Z,6.50
2022-12-28T11:22:26.394Z,6.70
2022-12-28T11:23:26.203Z,8.00
2022-12-28T11:24:37.640Z,6.40
2022-12-28T11:25:35.947Z,5.90
2022-12-28T11:26:30.698Z,6.70
2022-12-28T11:27:31.644Z,7.00
2022-12-28T11:28:30.109Z,7.30
2022-12-28T11:29:31.139Z,6.90
2022-12-28T11:30:33.084Z,7.50
2022-12-28T11:31:31.805Z,6.80
2022-12-28T11:32:29.331Z,5.60
2022-12-28T11:33:29.871Z,7.50
2022-12-28T11:34:29.363Z,7.80
2022-12-28T11:35:33.857Z,7.50
2022-12-28T11:36:28.518Z,8.50
2022-12-28T11:37:28.153Z,8.40
2022-12-28T11:38:31.547Z,7.20
2022-12-28T11:39:38.505Z,10.20
2022-12-28T11:40:29.612Z,6.60
2022-12-28T11:41:33.933Z,7.20
2022-12-28T11:42:39.020Z,7.60
2022-12-28T11:43:40.631Z,7.10
2022-12-28T11:44:30.558Z,8.00
2022-12-28T11:45:36.373Z,8.60
2022-12-28T11:46:35.598Z,6.80
2022-12-28T11:47:30.639Z,8.50
2022-12-28T11:48:33.416Z,10.60
2022-12-28T11:49:59.536Z,7.00
2022-12-28T11:50:39.328Z,6.80
2022-12-28T11:51:32.331Z,6.20
2022-12-28T11:52:33.000Z,7.20
2022-12-28T11:53:34.832Z,6.10
2022-12-28T11:54:29.390Z,7.10
2022-12-28T11:55:29.195Z,6.10
2022-12-28T11:56:37.980Z,7.10
2022-12-28T11:57:35.367Z,7.10
2022-12-28T11:58:29.741Z,6.30
2022-12-28T12:00:23.524Z,6.10
2022-12-28T12:01:18.370Z,5.90
2022-12-28T12:02:16.365Z,6.70
2022-12-28T12:03:18.045Z,5.80
2022-12-28T12:04:23.932Z,6.20
2022-12-28T12:05:17.771Z,5.60
2022-12-28T12:06:13.469Z,6.50
2022-12-28T12:07:12.353Z,5.70
2022-12-28T12:08:12.399Z,7.90
2022-12-28T12:09:12.277Z,5.80
2022-12-28T12:10:12.375Z,5.30
2022-12-28T12:11:12.795Z,5.60
2022-12-28T12:12:15.930Z,4.60
2022-12-28T12:13:13.219Z,5.20
2022-12-28T12:14:12.321Z,4.30
2022-12-28T12:15:12.247Z,4.50
2022-12-28T12:16:12.647Z,3.10
2022-12-28T12:17:12.264Z,3.50
2022-12-28T12:18:12.158Z,4.00
2022-12-28T12:19:12.144Z,5.80
2022-12-28T12:20:12.176Z,3.50
2022-12-28T12:21:15.996Z,4.40
2022-12-28T12:22:12.164Z,3.20
2022-12-28T12:23:12.312Z,5.40
2022-12-28T12:24:12.071Z,5.30
2022-12-28T12:25:12.094Z,3.50
2022-12-28T12:26:12.102Z,3.90
2022-12-28T12:27:13.749Z,3.60
2022-12-28T12:28:12.104Z,4.00
2022-12-28T12:29:12.111Z,4.40
2022-12-28T12:30:12.185Z,4.80
2022-12-28T12:31:12.986Z,5.00
2022-12-28T12:32:11.935Z,4.30
2022-12-28T12:33:11.966Z,5.30
2022-12-28T12:34:17.548Z,4.10
2022-12-28T12:35:12.966Z,4.80
2022-12-28T12:36:11.953Z,4.90
2022-12-28T12:37:12.052Z,4.40
2022-12-28T12:38:11.965Z,4.80
2022-12-28T12:39:11.975Z,4.50
2022-12-28T12:40:11.920Z,4.00
2022-12-28T12:41:11.888Z,4.70
2022-12-28T12:42:11.813Z,4.70
2022-12-28T12:43:11.788Z,5.90
2022-12-28T12:44:11.818Z,5.80
2022-12-28T12:45:11.853Z,7.20
2022-12-28T12:46:11.961Z,5.30
2022-12-28T12:47:11.739Z,6.60
2022-12-28T12:48:11.729Z,5.50
2022-12-28T12:49:11.837Z,5.20
2022-12-28T12:50:12.169Z,5.80
2022-12-28T12:51:11.780Z,5.70
2022-12-28T12:52:11.782Z,5.30
2022-12-28T12:53:11.759Z,5.80
2022-12-28T12:54:11.694Z,6.90
2022-12-28T12:55:11.670Z,6.10
2022-12-28T12:56:11.684Z,7.40
2022-12-28T12:57:11.688Z,5.50
2022-12-28T12:58:11.606Z,6.30
2022-12-28T12:59:11.637Z,6.60
2022-12-28T13:00:11.750Z,8.40
2022-12-28T13:01:11.742Z,7.20
2022-12-28T13:02:11.790Z,8.60
2022-12-28T13:03:11.563Z,8.90
2022-12-28T13:04:11.557Z,8.40
2022-12-28T13:05:11.558Z,8.40
2022-12-28T13:06:11.567Z,6.90
2022-12-28T13:07:11.583Z,7.50
2022-12-28T13:08:11.565Z,8.00
2022-12-28T13:09:11.507Z,8.00
2022-12-28T13:10:11.610Z,9.00
2022-12-28T13:11:11.387Z,9.80
2022-12-28T13:12:11.396Z,8.60
2022-12-28T13:13:11.428Z,9.60
2022-12-28T13:14:11.429Z,8.40
2022-12-28T13:15:12.996Z,11.30
2022-12-28T13:16:11.498Z,9.90
2022-12-28T13:17:11.356Z,7.70
2022-12-28T13:18:43.475Z,7.00
2022-12-28T13:19:12.368Z,9.40
2022-12-28T13:20:11.473Z,7.30
2022-12-28T13:21:12.937Z,7.50
2022-12-28T13:22:11.367Z,8.20
2022-12-28T13:23:11.286Z,8.70
2022-12-28T13:24:11.277Z,8.70
2022-12-28T13:25:11.787Z,10.50
2022-12-28T13:26:11.202Z,8.50
2022-12-28T13:27:12.641Z,8.90
2022-12-28T13:28:11.200Z,9.80
2022-12-28T13:29:11.173Z,9.20
2022-12-28T13:30:11.273Z,9.90
2022-12-28T13:31:11.206Z,8.80
2022-12-28T13:32:11.727Z,9.40
2022-12-28T13:33:11.141Z,10.30
2022-12-28T13:34:11.135Z,8.30
2022-12-28T13:35:11.178Z,12.60
2022-12-28T13:36:11.064Z,7.70
2022-12-28T13:37:11.156Z,9.20
2022-12-28T13:38:11.075Z,9.20